Littleton, CO (80120)

1:17 PM MDT on May 22, 2015 (GMT -0600)
Arapahoe Community College | | Change Station
CLOSE
Current Station
Personal Weather Station
Location: Littleton, CO
Elevation: 5371 ft
Nearby Weather Stations

Elev 5371 ft 39.61 °N, 105.02 °W | Updated 7 minutes ago

Overcast
Overcast
57.5 °F
Feels Like 57.5 °F
N
0.0
Wind Variable Wind from NNW
Gusts 0.4 mph

Today
High -- | Low -- °F
--% Chance of Precip.
Yesterday
High -- | Low -- °F
Precip. -- in
5:40 AM 8:13 PM
Waxing Crescent, 23% visible
Pressure 29.93 in
Visibility 10.0 miles
Clouds Few 1700 ft
Mostly Cloudy 3200 ft
Mostly Cloudy 9500 ft
Mostly Cloudy 13000 ft
Dew Point 45 °F
Humidity 64%
Rainfall -999.00 in
Snow Depth Not available.
UV 7 out of 12
Pollen 3.80 out of 12
Air Quality Not available.
Flu Activity Sporadic
METAR KAPA 221853Z 36007KT 10SM FEW017 BKN032 BKN095 BKN130 12/07 A3000 RMK AO2 SLP134 T01220072

More Conditions Fewer Conditions

Pressure 29.93 in
Visibility 10.0 miles
Clouds Few 1700 ft
Mostly Cloudy 3200 ft
Mostly Cloudy 9500 ft
Mostly Cloudy 13000 ft
Dew Point 45 °F
Humidity 64%
Rainfall -999.00 in
Snow Depth Not available.
UV 7 out of 12
Pollen 3.80 out of 12
Air Quality Not available.
Flu Activity Sporadic
METAR KAPA 221853Z 36007KT 10SM FEW017 BKN032 BKN095 BKN130 12/07 A3000 RMK AO2 SLP134 T01220072

More Conditions Fewer Conditions

10-Day Weather Forecast

Almanac

Astronomy

May. 22, 2015 Rise Set
Actual Time
Civil Twilight
Nautical Twilight
Astronomical Twilight
Moon
Length of Visible Light
Length of Day
Tomorrow will be .
, % of the Moon is Illuminated

Today's Extremes

State Highs State Lows

Community

WunderPhotos

Upload Photos

1,823,279 photos uploaded!

WunderBlogs® & News

Nearby

Air Quality

  Air Quality AQ Index Pollutant
Not available.

Snow Depth

Station Depth Elevation

Earthquake Activity

City Distance Mag. Time & Date
Minimum magnitude displayed is 2.5.

Coastal Water Temperatures

Place Temperature

Stations

Nearby Weather Stations

Station Location Temp. Windchill Dew Point Humidity Wind Precip. Elev Updated Type